Time;durP1;ratioP1;P1;durP2;ratioP2;P2;SDS_P1;SDS_P2;PMS_P1;PMS_P2;Temp;Humidity;BMP_temperature;BMP_pressure;BME280_temperature;BME280_humidity;BME280_pressure;Samples;Min_cycle;Max_cycle;Signal;HPM_P1;HPM_P2
2022/09/23 00:01:10;;;;;;;9.28;5.47;;;;;;;9.24;85.45;101168.23;1787718;79;28300;-79
2022/09/23 00:03:46;;;;;;;7.83;5.50;;;;;;;9.26;85.83;101174.24;1782729;79;25760;-79
2022/09/23 00:06:20;;;;;;;5.83;4.80;;;;;;;9.28;85.88;101169.56;1784285;79;25775;-79
2022/09/23 00:08:48;;;;;;;6.37;5.20;;;;;;;9.28;85.94;101166.09;1779618;79;26417;-78
2022/09/23 00:11:21;;;;;;;6.45;5.10;;;;;;;9.29;86.16;101163.73;1791005;79;25763;-78
2022/09/23 00:13:52;;;;;;;7.65;5.42;;;;;;;9.29;86.40;101163.23;1787920;79;26893;-79
2022/09/23 00:16:23;;;;;;;7.30;5.60;;;;;;;9.31;86.58;101164.40;1756484;79;25259;-78
2022/09/23 00:18:49;;;;;;;9.15;5.17;;;;;;;9.30;86.77;101154.20;1760747;79;26309;-78
2022/09/23 00:21:18;;;;;;;8.25;5.80;;;;;;;9.30;86.78;101159.55;1772727;79;25658;-79
2022/09/23 00:23:44;;;;;;;7.22;5.28;;;;;;;9.30;86.83;101158.20;1775448;79;26492;-79
2022/09/23 00:26:14;;;;;;;6.15;5.10;;;;;;;9.31;86.65;101163.06;1773877;79;27550;-79
2022/09/23 00:28:42;;;;;;;7.80;5.10;;;;;;;9.30;86.54;101157.39;1776160;79;25733;-79
2022/09/23 00:31:13;;;;;;;8.88;5.25;;;;;;;9.29;86.51;101157.89;1787001;79;25766;-79
2022/09/23 00:33:40;;;;;;;6.50;5.62;;;;;;;9.29;86.63;101157.89;1770701;79;25462;-79
2022/09/23 00:36:10;;;;;;;7.08;5.00;;;;;;;9.29;86.67;101154.38;1766170;79;25885;-79
2022/09/23 00:38:37;;;;;;;8.33;5.45;;;;;;;9.29;87.00;101149.03;1778316;79;27455;-79
2022/09/23 00:41:05;;;;;;;8.70;5.55;;;;;;;9.30;87.06;101146.70;1769091;79;25923;-79
2022/09/23 00:43:42;;;;;;;10.00;5.62;;;;;;;9.30;86.90;101150.71;1772257;79;25745;-79
2022/09/23 00:46:30;;;;;;;8.63;6.50;;;;;;;9.30;87.20;101148.85;1783132;78;25806;-78
2022/09/23 00:49:02;;;;;;;7.95;5.85;;;;;;;9.29;87.40;101146.36;1779788;79;26501;-79
2022/09/23 00:51:36;;;;;;;9.13;6.35;;;;;;;9.31;87.53;101149.70;1777004;79;27454;-79
2022/09/23 00:54:05;;;;;;;9.30;6.22;;;;;;;9.31;87.62;101148.36;1770476;79;25787;-79
2022/09/23 00:56:32;;;;;;;12.15;6.95;;;;;;;9.32;87.62;101152.20;1783166;79;26072;-79
2022/09/23 00:59:00;;;;;;;9.58;6.60;;;;;;;9.33;87.65;101147.69;1775407;79;25713;-79
2022/09/23 01:01:27;;;;;;;6.87;5.50;;;;;;;9.32;87.64;101144.70;1767708;79;25794;-79
2022/09/23 01:03:55;;;;;;;7.22;5.35;;;;;;;9.32;87.47;101150.86;1781950;79;27508;-79
2022/09/23 01:06:22;;;;;;;6.25;5.58;;;;;;;9.30;87.34;101150.19;1772136;79;26395;-79
2022/09/23 01:08:48;;;;;;;11.03;5.45;;;;;;;9.28;86.98;101150.86;1763981;80;25474;-79
2022/09/23 01:11:26;;;;;;;8.10;5.45;;;;;;;9.25;86.48;101146.35;1775579;79;26468;-79
2022/09/23 01:14:06;;;;;;;7.87;4.50;;;;;;;9.20;86.17;101140.65;1783629;79;25847;-79
2022/09/23 01:16:44;;;;;;;6.78;4.55;;;;;;;9.14;85.96;101144.83;1789836;79;27539;-79
2022/09/23 01:19:49;;;;;;;6.00;4.62;;;;;;;9.11;85.75;101147.01;1786075;79;25916;-79
2022/09/23 01:22:42;;;;;;;8.20;5.22;;;;;;;9.05;85.66;101144.47;1782891;79;26788;-79
2022/09/23 01:25:30;;;;;;;7.40;5.70;;;;;;;9.00;85.56;101140.62;1781729;78;25685;-79
2022/09/23 01:28:26;;;;;;;7.50;5.22;;;;;;;8.96;85.46;101149.97;1781317;78;26053;-79
2022/09/23 01:31:04;;;;;;;5.78;4.47;;;;;;;8.91;85.37;101154.95;1781599;79;28284;-79
2022/09/23 01:33:52;;;;;;;6.72;4.70;;;;;;;8.85;85.16;101147.11;1761019;79;25784;-79
2022/09/23 01:36:33;;;;;;;4.37;3.98;;;;;;;8.81;85.15;101144.91;1789016;79;25833;-79
2022/09/23 01:39:21;;;;;;;5.00;4.42;;;;;;;8.77;85.07;101147.05;1779087;79;25824;-80
2022/09/23 01:42:16;;;;;;;7.47;5.05;;;;;;;8.73;85.05;101148.38;1778358;79;25895;-81
2022/09/23 01:44:55;;;;;;;5.95;4.83;;;;;;;8.69;85.04;101141.69;1784882;79;27483;-80
2022/09/23 01:47:33;;;;;;;5.80;4.55;;;;;;;8.66;84.90;101137.99;1770875;79;26444;-80
2022/09/23 01:50:55;;;;;;;8.25;4.72;;;;;;;8.62;84.78;101136.64;1775995;79;25293;-80
2022/09/23 01:52:42;;;;;;;6.95;5.08;;;;;;;8.58;84.63;101135.30;1784432;79;26215;-80
2022/09/23 01:55:38;;;;;;;4.97;4.20;;;;;;;8.54;84.57;101135.29;1787392;79;25291;-80
2022/09/23 01:58:15;;;;;;;4.78;4.22;;;;;;;8.49;84.39;101138.44;1776268;79;27639;-80
2022/09/23 02:00:50;;;;;;;7.05;4.70;;;;;;;8.44;84.14;101139.92;1741482;81;25919;-81
2022/09/23 02:03:20;;;;;;;4.35;3.72;;;;;;;8.37;83.94;101139.72;1771259;79;26534;-80
2022/09/23 02:05:58;;;;;;;7.47;3.90;;;;;;;8.31;83.88;101135.52;1808059;78;25753;-80
2022/09/23 02:08:45;;;;;;;5.37;4.30;;;;;;;8.27;83.83;101144.84;1798970;78;25742;-80
2022/09/23 02:11:14;;;;;;;4.85;4.00;;;;;;;8.23;83.77;101140.78;1795809;77;27428;-80
2022/09/23 02:14:03;;;;;;;6.03;4.10;;;;;;;8.17;83.80;101133.42;1763665;79;25919;-80
2022/09/23 02:16:46;;;;;;;5.42;4.75;;;;;;;8.15;83.98;101138.89;1764987;80;25803;-80
2022/09/23 02:19:29;;;;;;;9.85;6.65;;;;;;;8.15;84.18;101132.70;1782069;78;26487;-80
2022/09/23 02:22:09;;;;;;;7.53;5.58;;;;;;;8.14;84.22;101137.72;1800688;79;25728;-81
2022/09/23 02:24:38;;;;;;;6.93;4.90;;;;;;;8.10;84.04;101139.88;1797471;79;27460;-80
2022/09/23 02:27:22;;;;;;;6.92;4.92;;;;;;;8.06;83.79;101141.69;1807329;78;26445;-80
2022/09/23 02:30:07;;;;;;;7.55;5.28;;;;;;;8.01;83.57;101142.16;1765273;80;25694;-79
2022/09/23 02:33:04;;;;;;;7.97;5.45;;;;;;;7.94;83.55;101137.09;1791106;78;25677;-80
2022/09/23 02:35:48;;;;;;;6.67;5.20;;;;;;;7.87;83.48;101135.22;1803145;79;25760;-79
2022/09/23 02:38:43;;;;;;;8.73;5.47;;;;;;;7.79;83.41;101138.16;1801995;79;27437;-79
2022/09/23 02:41:14;;;;;;;11.90;6.22;;;;;;;7.74;83.41;101135.63;1777751;79;25794;-79
2022/09/23 02:43:52;;;;;;;10.15;5.20;;;;;;;7.68;83.46;101142.89;1785039;79;25818;-79
2022/09/23 02:46:20;;;;;;;6.90;5.65;;;;;;;7.63;83.42;101142.55;1787992;79;25743;-79
2022/09/23 02:49:12;;;;;;;10.95;5.42;;;;;;;7.58;83.49;101143.00;1779924;79;26448;-79
2022/09/23 02:51:40;;;;;;;8.68;5.25;;;;;;;7.56;83.72;101144.14;1777815;79;27526;-78
2022/09/23 02:54:13;;;;;;;6.37;4.90;;;;;;;7.51;83.75;101143.75;1781127;80;25789;-81
2022/09/23 02:56:40;;;;;;;6.78;4.70;;;;;;;7.49;83.80;101151.91;1748736;80;26458;-79
2022/09/23 02:59:08;;;;;;;6.08;4.15;;;;;;;7.45;83.52;101152.37;1757121;80;25851;-78
2022/09/23 03:02:07;;;;;;;4.58;3.87;;;;;;;7.39;83.40;101149.83;1786516;79;25794;-79
2022/09/23 03:05:17;;;;;;;5.80;4.50;;;;;;;7.36;83.42;101149.28;1790528;80;27420;-79
2022/09/23 03:08:18;;;;;;;5.00;4.10;;;;;;;7.30;83.36;101144.08;1782962;79;25292;-79
2022/09/23 03:11:05;;;;;;;7.42;4.95;;;;;;;7.26;83.43;101144.05;1788763;79;25350;-79
2022/09/23 03:13:52;;;;;;;6.25;4.78;;;;;;;7.23;83.49;101155.52;1779979;79;26472;-79
2022/09/23 03:16:58;;;;;;;7.45;5.30;;;;;;;7.20;83.48;101147.32;1779171;79;25911;-79
2022/09/23 03:19:40;;;;;;;8.03;5.25;;;;;;;7.17;83.51;101151.61;1745721;79;27504;-79
2022/09/23 03:22:18;;;;;;;21.90;5.60;;;;;;;7.13;83.51;101152.06;1784189;79;25323;-80
2022/09/23 03:24:47;;;;;;;30.57;5.58;;;;;;;7.13;83.68;101145.40;1789567;79;25795;-80
2022/09/23 03:27:18;;;;;;;7.47;5.20;;;;;;;7.08;83.80;101155.17;1782610;79;25807;-80
2022/09/23 03:29:52;;;;;;;35.00;5.62;;;;;;;7.00;83.79;101147.95;1775413;79;25747;-80
2022/09/23 03:32:22;;;;;;;18.98;5.60;;;;;;;6.96;83.74;101149.72;1769356;79;28525;-80
2022/09/23 03:34:53;;;;;;;24.60;6.60;;;;;;;6.93;83.90;101146.86;1769091;79;26510;-79
2022/09/23 03:37:39;;;;;;;42.27;5.53;;;;;;;6.92;84.10;101148.36;1765427;79;25455;-80
2022/09/23 03:40:20;;;;;;;17.40;5.00;;;;;;;6.89;84.04;101148.16;1788217;79;26346;-80
2022/09/23 03:42:48;;;;;;;5.45;4.37;;;;;;;6.84;84.31;101141.09;1784912;79;26396;-79
2022/09/23 03:45:20;;;;;;;19.62;4.67;;;;;;;6.83;84.66;101141.25;1764705;79;28106;-79
2022/09/23 03:47:46;;;;;;;6.20;4.55;;;;;;;6.80;84.43;101143.72;1761039;79;26641;-79
2022/09/23 03:50:13;;;;;;;15.23;4.53;;;;;;;6.76;84.24;101142.34;1781955;79;25286;-79
2022/09/23 03:52:40;;;;;;;8.13;4.20;;;;;;;6.74;84.18;101142.98;1771385;79;25638;-79
2022/09/23 03:55:07;;;;;;;6.25;3.95;;;;;;;6.73;84.35;101140.48;1761140;79;25792;-79
2022/09/23 03:57:35;;;;;;;20.48;3.98;;;;;;;6.72;84.37;101141.45;1776578;79;27554;-79
2022/09/23 04:00:03;;;;;;;4.28;3.87;;;;;;;6.70;84.28;101138.95;1774636;79;25689;-79
2022/09/23 04:02:32;;;;;;;;;;;;;;;6.69;84.29;101139.11;1779637;79;26388;-80
2022/09/23 04:04:58;;;;;;;3.60;3.30;;;;;;;6.66;84.24;101136.24;1775946;79;26559;-79
2022/09/23 04:07:25;;;;;;;4.87;4.12;;;;;;;6.63;84.21;101137.05;1763492;79;26505;-79
2022/09/23 04:09:51;;;;;;;4.80;4.12;;;;;;;6.61;84.15;101131.84;1765211;79;27432;-79
2022/09/23 04:12:18;;;;;;;5.22;4.22;;;;;;;6.61;84.06;101131.00;1762458;79;25827;-79
2022/09/23 04:14:44;;;;;;;5.95;3.95;;;;;;;6.58;84.07;101128.17;1767834;80;26364;-79
2022/09/23 04:17:12;;;;;;;6.17;4.87;;;;;;;6.58;83.99;101124.66;1778322;78;26683;-79
2022/09/23 04:19:38;;;;;;;5.37;4.62;;;;;;;6.57;83.96;101127.81;1769814;78;25923;-79
2022/09/23 04:22:05;;;;;;;6.33;4.92;;;;;;;6.56;83.84;101127.48;1776410;80;28269;-79
2022/09/23 04:24:31;;;;;;;7.08;5.03;;;;;;;6.55;83.83;101131.59;1777941;79;26476;-79
2022/09/23 04:26:58;;;;;;;7.25;5.37;;;;;;;6.54;83.87;101126.80;1775519;80;26413;-79
2022/09/23 04:29:25;;;;;;;9.10;6.65;;;;;;;6.55;83.93;101135.11;1770497;80;25897;-79
2022/09/23 04:31:53;;;;;;;8.35;5.97;;;;;;;6.55;84.69;101124.95;1769650;80;25880;-79
2022/09/23 04:34:20;;;;;;;8.03;6.10;;;;;;;6.56;84.87;101130.14;1777371;80;28233;-79
2022/09/23 04:36:48;;;;;;;8.95;6.67;;;;;;;6.57;84.70;101134.47;1776387;80;25669;-79
2022/09/23 04:39:16;;;;;;;8.28;6.17;;;;;;;6.57;84.63;101129.14;1773363;78;25803;-79
2022/09/23 04:41:44;;;;;;;11.70;7.37;;;;;;;6.58;84.58;101131.31;1769919;78;26217;-79
2022/09/23 04:44:12;;;;;;;15.80;8.48;;;;;;;6.57;84.92;101126.48;1778226;78;25857;-79
2022/09/23 04:46:46;;;;;;;11.12;7.10;;;;;;;6.57;84.81;101130.47;1778736;78;27522;-79
2022/09/23 04:49:11;;;;;;;7.20;6.00;;;;;;;6.58;84.72;101135.31;1777958;78;25870;-79
2022/09/23 04:51:42;;;;;;;9.23;6.10;;;;;;;6.57;84.67;101135.80;1771456;78;25810;-79
2022/09/23 04:54:06;;;;;;;9.83;6.55;;;;;;;6.56;84.24;101134.14;1778184;80;25881;-79
2022/09/23 04:56:32;;;;;;;11.20;6.65;;;;;;;6.54;83.96;101135.27;1770670;78;25929;-79
2022/09/23 04:59:00;;;;;;;11.35;6.70;;;;;;;6.52;83.92;101132.73;1768662;80;27672;-79
2022/09/23 05:01:30;;;;;;;13.78;7.80;;;;;;;6.49;83.79;101134.86;1778964;78;25998;-79
2022/09/23 05:04:04;;;;;;;23.25;11.25;;;;;;;6.47;83.82;101140.34;1770026;80;25741;-79
2022/09/23 05:06:30;;;;;;;24.95;9.90;;;;;;;6.45;83.93;101136.14;1778208;78;26430;-79
2022/09/23 05:08:58;;;;;;;20.52;9.60;;;;;;;6.45;84.04;101132.99;1777557;80;25768;-79
2022/09/23 05:11:25;;;;;;;33.70;9.63;;;;;;;6.45;84.07;101138.31;1770518;78;28237;-79
2022/09/23 05:13:53;;;;;;;22.95;7.83;;;;;;;6.45;84.13;101137.47;1775117;80;25843;-79
2022/09/23 05:16:22;;;;;;;17.82;7.00;;;;;;;6.43;84.27;101134.12;1771326;80;25981;-79
2022/09/23 05:18:49;;;;;;;15.85;6.72;;;;;;;6.42;84.51;101131.09;1757917;80;25767;-79
2022/09/23 05:21:19;;;;;;;10.18;6.65;;;;;;;6.45;85.02;101130.81;1764616;80;25692;-79
2022/09/23 05:23:48;;;;;;;16.85;5.65;;;;;;;6.49;85.43;101134.38;1782587;78;28669;-79
2022/09/23 05:26:15;;;;;;;12.45;5.17;;;;;;;6.53;85.62;101133.09;1737146;81;26496;-79
2022/09/23 05:28:42;;;;;;;8.80;5.30;;;;;;;6.56;85.65;101136.80;1774244;79;25858;-79
2022/09/23 05:31:16;;;;;;;9.70;6.45;;;;;;;6.56;85.67;101130.14;1763575;79;26402;-79
2022/09/23 05:33:45;;;;;;;6.37;5.00;;;;;;;6.58;86.05;101141.97;1739323;80;26392;-79
2022/09/23 05:36:12;;;;;;;9.23;5.80;;;;;;;6.58;86.19;101134.83;1761565;79;27471;-79
2022/09/23 05:38:39;;;;;;;10.25;5.75;;;;;;;6.62;86.43;101138.02;1765616;80;25779;-79
2022/09/23 05:41:09;;;;;;;7.55;5.72;;;;;;;6.64;86.61;101134.23;1765800;80;25942;-79
2022/09/23 05:43:36;;;;;;;13.22;7.67;;;;;;;6.66;86.93;101134.91;1779694;80;26277;-79
2022/09/23 05:46:16;;;;;;;12.95;7.65;;;;;;;6.69;87.63;101130.60;1758847;81;25637;-79
2022/09/23 05:48:46;;;;;;;15.28;7.00;;;;;;;6.75;88.01;101134.52;1756520;81;28206;-79
2022/09/23 05:51:17;;;;;;;12.68;6.60;;;;;;;6.81;88.58;101137.42;1744259;81;25771;-79
2022/09/23 05:53:44;;;;;;;7.97;6.15;;;;;;;6.85;88.71;101137.46;1753284;81;25886;-79
2022/09/23 05:56:17;;;;;;;9.73;6.50;;;;;;;6.87;88.66;101135.97;1779054;79;25707;-79
2022/09/23 05:58:43;;;;;;;9.15;5.42;;;;;;;6.90;88.69;101133.02;1782693;79;25918;-79
2022/09/23 06:01:14;;;;;;;9.28;6.03;;;;;;;6.91;88.70;101137.34;1760476;81;27510;-79
2022/09/23 06:03:40;;;;;;;;;;;;;;;6.94;88.77;101141.89;1765983;80;26439;-79
2022/09/23 06:06:11;;;;;;;11.35;7.10;;;;;;;6.98;89.15;101134.44;1776858;79;26065;-79
2022/09/23 06:08:37;;;;;;;10.38;6.37;;;;;;;7.01;89.45;101134.95;1761703;81;25814;-78
2022/09/23 06:11:06;;;;;;;13.70;7.72;;;;;;;7.07;89.71;101144.67;1766231;81;25409;-79
2022/09/23 06:13:37;;;;;;;10.58;7.47;;;;;;;7.10;89.89;101134.55;1803181;78;28266;-79
2022/09/23 06:16:11;;;;;;;13.48;7.28;;;;;;;7.15;90.06;101144.27;1797844;79;25792;-79
2022/09/23 06:18:43;;;;;;;13.08;8.38;;;;;;;7.23;90.18;101148.33;1855044;76;25828;-79
2022/09/23 06:21:13;;;;;;;14.95;8.95;;;;;;;7.32;90.54;101148.77;1799311;77;26307;-79
2022/09/23 06:23:41;;;;;;;15.25;9.35;;;;;;;7.42;90.99;101146.03;1806787;78;25992;-79
2022/09/23 06:26:10;;;;;;;13.68;9.08;;;;;;;7.50;91.58;101140.77;1792615;78;27461;-79
2022/09/23 06:28:41;;;;;;;12.68;8.68;;;;;;;7.58;92.19;101149.67;1778325;79;25810;-79
2022/09/23 06:31:12;;;;;;;12.30;8.63;;;;;;;7.68;92.89;101146.41;1795684;77;25811;-78
2022/09/23 06:33:39;;;;;;;14.05;8.90;;;;;;;7.74;93.14;101149.78;1807005;77;25835;-78
2022/09/23 06:36:06;;;;;;;13.65;9.48;;;;;;;7.81;93.50;101151.33;1818416;77;25312;-79
2022/09/23 06:38:34;;;;;;;11.63;8.83;;;;;;;7.89;93.84;101157.23;1806054;78;27453;-79
2022/09/23 06:41:02;;;;;;;14.60;10.08;;;;;;;7.98;94.07;101156.28;1801999;78;25778;-79
2022/09/23 06:43:29;;;;;;;11.25;9.13;;;;;;;8.05;94.26;101152.84;1815254;77;25849;-79
2022/09/23 06:46:01;;;;;;;13.40;10.48;;;;;;;8.14;94.67;101158.58;1819521;78;25755;-79
2022/09/23 06:48:29;;;;;;;14.13;10.93;;;;;;;8.24;94.97;101154.45;1818970;78;25765;-85
2022/09/23 06:51:01;;;;;;;13.05;10.05;;;;;;;8.36;95.14;101155.38;1793113;78;27611;-81
2022/09/23 06:53:31;;;;;;;13.53;10.30;;;;;;;8.45;95.36;101152.26;1805799;78;25798;-82
2022/09/23 06:56:05;;;;;;;15.53;10.95;;;;;;;8.54;95.41;101157.98;1803402;78;25854;-81
2022/09/23 06:58:34;;;;;;;13.78;10.10;;;;;;;8.58;95.33;101156.66;1812846;77;25734;-82
2022/09/23 07:01:11;;;;;;;14.40;10.68;;;;;;;8.64;95.42;101159.20;1815082;78;25686;-82
2022/09/23 07:03:38;;;;;;;13.88;9.83;;;;;;;8.71;95.79;101153.05;1801962;78;28590;-81
2022/09/23 07:06:06;;;;;;;15.50;11.15;;;;;;;8.75;95.84;101153.55;1807165;77;25321;-81
2022/09/23 07:08:34;;;;;;;15.20;10.85;;;;;;;8.81;96.01;101159.61;1810883;78;25740;-82
2022/09/23 07:11:06;;;;;;;14.30;11.05;;;;;;;8.86;96.15;101157.27;1790710;79;25864;-81
2022/09/23 07:13:33;;;;;;;14.75;11.03;;;;;;;8.90;96.25;101166.63;1808077;78;25810;-80
2022/09/23 07:16:01;;;;;;;15.05;11.78;;;;;;;8.98;96.56;101158.66;1782329;78;27632;-82
2022/09/23 07:18:32;;;;;;;14.28;11.43;;;;;;;9.03;96.55;101161.66;1806027;78;25817;-82
2022/09/23 07:21:12;;;;;;;17.32;11.73;;;;;;;9.11;96.78;101148.34;1805399;77;25783;-80
2022/09/23 07:23:38;;;;;;;14.63;11.38;;;;;;;9.18;97.31;101143.99;1812567;77;26372;-81
2022/09/23 07:26:06;;;;;;;14.03;11.00;;;;;;;9.28;97.35;101148.19;1815482;77;25839;-80
2022/09/23 07:28:33;;;;;;;13.70;11.45;;;;;;;9.41;97.44;101145.55;1792592;78;27451;-80
2022/09/23 07:31:08;;;;;;;15.85;11.78;;;;;;;9.48;97.33;101149.20;1788067;78;25912;-81
2022/09/23 07:33:37;;;;;;;14.73;10.10;;;;;;;9.59;97.32;101152.40;1779620;80;25123;-80
2022/09/23 07:36:08;;;;;;;14.07;10.98;;;;;;;9.70;97.22;101152.56;1810113;77;26367;-83
2022/09/23 07:38:37;;;;;;;12.37;10.10;;;;;;;9.71;96.47;101151.05;1798267;78;25801;-88
2022/09/23 07:41:10;;;;;;;14.18;11.60;;;;;;;9.72;96.08;101149.22;1776631;80;28006;-80
2022/09/23 07:43:39;;;;;;;12.20;10.58;;;;;;;9.76;96.24;101149.21;1782919;80;25758;-81
2022/09/23 07:46:10;;;;;;;16.82;12.88;;;;;;;9.79;96.28;101143.05;1786869;78;25661;-85
2022/09/23 07:48:38;;;;;;;14.87;11.35;;;;;;;9.87;96.30;101147.05;1811823;78;26280;-77
2022/09/23 07:51:27;;;;;;;13.00;10.43;;;;;;;9.97;96.71;101145.02;1813583;78;26367;-78
2022/09/23 07:53:55;;;;;;;12.15;10.05;;;;;;;10.11;97.32;101146.70;1814305;78;27394;-78
2022/09/23 07:56:27;;;;;;;12.23;10.43;;;;;;;10.22;96.80;101139.66;1775191;78;26028;-79
2022/09/23 07:59:02;;;;;;;11.93;9.53;;;;;;;10.29;96.58;101143.30;1860646;76;25645;-79
2022/09/23 08:01:36;;;;;;;11.18;8.65;;;;;;;10.38;96.51;101139.09;1856210;76;25907;-78
2022/09/23 08:04:16;;;;;;;11.83;8.65;;;;;;;10.46;96.12;101142.23;1862113;76;26286;-78
2022/09/23 08:06:47;;;;;;;10.35;7.87;;;;;;;10.54;96.13;101137.69;1855963;76;29857;-77
2022/09/23 08:09:16;;;;;;;13.18;9.18;;;;;;;10.60;95.84;101134.34;1850657;76;26392;-78
2022/09/23 08:11:43;;;;;;;7.72;6.70;;;;;;;10.67;95.93;101136.62;1856551;76;26378;-77
2022/09/23 08:14:12;;;;;;;7.65;6.78;;;;;;;10.78;96.09;101130.05;1843077;75;26200;-78
2022/09/23 08:16:40;;;;;;;9.30;7.60;;;;;;;10.88;95.79;101130.69;1850609;75;26107;-78
2022/09/23 08:19:07;;;;;;;8.85;6.30;;;;;;;10.99;95.76;101126.77;1841879;76;27419;-78
2022/09/23 08:21:34;;;;;;;6.42;5.67;;;;;;;11.10;95.51;101121.02;1844178;77;26560;-78
2022/09/23 08:24:01;;;;;;;6.62;5.47;;;;;;;11.20;95.29;101127.81;1843735;75;25782;-77
2022/09/23 08:26:28;;;;;;;6.40;4.87;;;;;;;11.30;95.09;101130.24;1839309;75;25791;-78
2022/09/23 08:32:04;;;;;;;4.42;2.22;;;;;;;11.50;93.97;101118.03;1842509;76;27043;-77
2022/09/23 08:34:30;;;;;;;3.72;3.27;;;;;;;11.62;92.10;101117.92;1841269;75;26383;-77
2022/09/23 08:36:56;;;;;;;6.87;6.20;;;;;;;11.72;92.06;101122.55;1843938;75;25961;-76
2022/09/23 08:39:23;;;;;;;4.20;3.80;;;;;;;11.81;91.21;101123.31;1843379;77;25741;-76
2022/09/23 08:42:01;;;;;;;4.08;3.65;;;;;;;11.87;91.00;101115.37;1851623;75;25699;-76
2022/09/23 08:44:33;;;;;;;4.72;3.37;;;;;;;11.95;90.55;101111.78;1791165;77;27544;-76
2022/09/23 08:47:10;;;;;;;3.22;2.90;;;;;;;11.98;90.41;101109.56;1789273;77;25762;-76
2022/09/23 08:49:58;;;;;;;5.08;3.62;;;;;;;12.03;89.94;101108.52;1798965;79;25820;-78
2022/09/23 08:52:35;;;;;;;4.45;3.40;;;;;;;12.11;89.26;101111.10;1785250;78;26753;-78
2022/09/23 08:55:03;;;;;;;6.12;5.35;;;;;;;12.17;88.82;101111.70;1790820;78;26451;-78
2022/09/23 08:58:13;;;;;;;4.47;2.80;;;;;;;12.27;88.80;101110.09;1799325;79;27451;-78
2022/09/23 09:00:45;;;;;;;3.52;2.12;;;;;;;12.39;89.22;101108.60;1770077;80;25767;-77
2022/09/23 09:03:28;;;;;;;2.42;2.17;;;;;;;12.42;86.76;101108.75;1755267;78;26345;-77
2022/09/23 09:05:55;;;;;;;3.62;2.42;;;;;;;12.43;87.54;101108.55;1748062;79;27971;-77
2022/09/23 09:08:32;;;;;;;2.45;2.10;;;;;;;12.46;87.12;101112.72;1791714;78;26401;-83
2022/09/23 09:13:56;;;;;;;1.92;1.70;;;;;;;12.50;85.73;101107.30;1784260;76;25977;-79
2022/09/23 09:20:08;;;;;;;4.78;2.17;;;;;;;12.68;84.55;101096.47;1757816;78;26575;-80
2022/09/23 09:22:59;;;;;;;4.78;2.33;;;;;;;12.77;84.62;101085.94;1762141;79;25924;-81
2022/09/23 09:25:46;;;;;;;2.10;1.90;;;;;;;12.86;83.56;101088.84;1798989;78;27491;-83
2022/09/23 09:28:41;;;;;;;2.65;2.10;;;;;;;12.92;83.34;101082.70;1755416;78;25804;-83
2022/09/23 09:31:39;;;;;;;5.00;2.70;;;;;;;13.01;83.19;101078.03;1790674;78;25984;-86
2022/09/23 09:34:15;;;;;;;2.92;2.12;;;;;;;13.06;82.35;101069.77;1782389;78;26171;-82
2022/09/23 09:36:47;;;;;;;3.27;2.15;;;;;;;13.12;82.53;101070.84;1767193;79;26023;-80
2022/09/23 09:39:14;;;;;;;2.47;2.27;;;;;;;13.23;82.39;101068.99;1780199;78;27452;-82
2022/09/23 09:41:45;;;;;;;2.85;2.35;;;;;;;13.29;81.54;101068.72;1784959;78;26491;-82
2022/09/23 09:44:39;;;;;;;2.33;1.60;;;;;;;13.30;81.54;101067.71;1781782;78;26012;-77
2022/09/23 09:47:28;;;;;;;2.00;1.80;;;;;;;13.33;80.64;101067.30;1735695;81;26037;-78
2022/09/23 09:50:12;;;;;;;2.33;1.85;;;;;;;13.31;79.63;101071.55;1736040;79;25616;-79
2022/09/23 09:52:41;;;;;;;4.72;1.32;;;;;;;13.30;78.46;101067.17;1746309;81;28429;-79
2022/09/23 09:55:18;;;;;;;2.45;1.42;;;;;;;13.33;79.26;101060.08;1736859;81;25797;-79
2022/09/23 09:58:00;;;;;;;2.37;1.70;;;;;;;13.34;79.09;101059.06;1744875;81;25850;-79
2022/09/23 10:00:30;;;;;;;1.67;1.57;;;;;;;13.35;79.22;101057.18;1761250;79;26376;-79
2022/09/23 10:03:13;;;;;;;1.20;1.10;;;;;;;13.33;78.87;101058.73;1783573;80;26483;-79
2022/09/23 10:05:51;;;;;;;1.82;1.67;;;;;;;13.36;77.95;101050.78;1746899;80;27480;-81
2022/09/23 10:08:27;;;;;;;2.70;1.07;;;;;;;13.43;77.99;101051.15;1749603;80;25901;-83
2022/09/23 10:11:14;;;;;;;1.17;1.00;;;;;;;13.55;77.04;101052.81;1757507;80;26415;-82
2022/09/23 10:13:41;;;;;;;1.10;1.00;;;;;;;13.66;76.91;101044.20;1761347;80;25985;-85
2022/09/23 10:16:11;;;;;;;1.50;1.17;;;;;;;13.79;76.07;101043.77;1743286;80;25891;-82
2022/09/23 10:18:50;;;;;;;1.22;1.12;;;;;;;13.89;75.78;101048.31;1738963;80;27449;-81
2022/09/23 10:21:20;;;;;;;4.08;1.37;;;;;;;13.94;75.53;101045.84;1769746;80;26009;-81
2022/09/23 10:23:54;;;;;;;1.87;1.60;;;;;;;14.03;76.01;101039.78;1756111;80;35163;-82
2022/09/23 10:26:40;;;;;;;3.47;1.72;;;;;;;14.11;75.82;101036.11;1785297;77;26325;-83
2022/09/23 10:29:29;;;;;;;1.75;1.65;;;;;;;14.18;75.42;101043.72;1747948;81;25339;-80
2022/09/23 10:32:36;;;;;;;1.65;1.30;;;;;;;14.25;76.03;101039.17;1752485;81;27425;-81
2022/09/23 10:35:14;;;;;;;1.65;1.17;;;;;;;14.33;75.24;101037.68;1771599;79;25775;-79
2022/09/23 10:37:53;;;;;;;1.20;1.10;;;;;;;14.45;75.52;101037.45;1750963;81;26087;-79
2022/09/23 10:46:38;;;;;;;3.35;1.35;;;;;;;14.48;73.75;101023.55;1753770;81;27513;-81
2022/09/23 10:49:26;;;;;;;2.65;0.95;;;;;;;14.40;72.94;101029.96;1764459;79;26441;-80
2022/09/23 10:52:36;;;;;;;0.78;0.78;;;;;;;14.34;72.42;101025.88;1756485;79;25783;-80
2022/09/23 10:55:33;;;;;;;1.07;0.97;;;;;;;14.21;71.55;101019.89;1759201;79;26331;-81
2022/09/23 10:58:20;;;;;;;1.10;0.93;;;;;;;14.15;70.94;101026.59;1758933;81;25898;-80
2022/09/23 11:01:00;;;;;;;2.98;0.90;;;;;;;14.07;71.52;101026.22;1758243;81;27440;-81
2022/09/23 11:03:58;;;;;;;2.10;0.82;;;;;;;14.01;71.26;101024.33;1771245;79;25812;-80
2022/09/23 11:10:00;;;;;;;0.70;0.60;;;;;;;14.11;71.80;101019.44;1738664;80;26436;-81
2022/09/23 11:13:08;;;;;;;1.27;0.93;;;;;;;14.24;70.19;101018.66;1709301;81;45550;-80
2022/09/23 11:16:09;;;;;;;0.95;0.60;;;;;;;14.34;69.78;101018.64;1753561;79;28698;-76
2022/09/23 11:18:46;;;;;;;0.85;0.80;;;;;;;14.46;69.45;101014.83;1746004;79;26616;-81
2022/09/23 11:21:36;;;;;;;1.02;0.75;;;;;;;14.57;67.61;101016.95;1747737;80;25438;-81
2022/09/23 11:24:17;;;;;;;2.33;1.20;;;;;;;14.59;68.10;101010.84;1784442;79;25755;-79
2022/09/23 11:27:11;;;;;;;1.90;1.40;;;;;;;14.55;67.76;101010.93;1752772;79;25813;-81
2022/09/23 11:30:08;;;;;;;1.30;1.07;;;;;;;14.49;67.42;101007.20;1760286;79;27485;-79
2022/09/23 11:32:40;;;;;;;1.30;1.00;;;;;;;14.55;67.99;100998.80;1761333;79;26079;-79
2022/09/23 11:35:26;;;;;;;0.95;0.88;;;;;;;14.61;68.23;101000.17;1741501;79;25772;-80
2022/09/23 11:37:57;;;;;;;0.80;0.78;;;;;;;14.74;67.79;100993.98;1733499;79;26266;-78
2022/09/23 11:40:29;;;;;;;1.27;0.42;;;;;;;14.87;66.76;100994.52;1743439;79;25806;-78
2022/09/23 11:43:22;;;;;;;2.42;0.72;;;;;;;14.93;66.02;100989.64;1759711;79;27466;-82
2022/09/23 11:46:13;;;;;;;0.68;0.50;;;;;;;14.98;64.67;100985.83;1736931;79;25770;-78
2022/09/23 11:49:08;;;;;;;0.88;0.80;;;;;;;14.95;64.69;100993.00;1731299;81;33095;-85
2022/09/23 11:52:01;;;;;;;1.07;0.90;;;;;;;14.92;64.47;100984.79;1760316;79;26243;-80
2022/09/23 11:55:00;;;;;;;1.15;0.80;;;;;;;14.86;63.53;100988.31;1736793;79;25891;-90
2022/09/23 11:57:56;;;;;;;2.10;0.90;;;;;;;14.80;63.82;100995.84;1572422;85;27460;-87
2022/09/23 12:00:27;;;;;;;0.80;0.60;;;;;;;14.68;63.85;100991.59;1641354;85;26738;-80
2022/09/23 12:03:22;;;;;;;0.78;0.70;;;;;;;14.62;64.37;100987.53;1718873;79;25794;-81
2022/09/23 12:06:01;;;;;;;1.65;0.60;;;;;;;14.62;64.37;100987.53;1749084;79;25955;-82
2022/09/23 12:08:33;;;;;;;0.98;0.60;;;;;;;14.60;63.92;100978.81;1759550;78;25345;-86
2022/09/23 12:11:24;;;;;;;1.37;0.80;;;;;;;14.58;63.95;100976.30;1756152;79;28191;-80
2022/09/23 12:14:03;;;;;;;;;;;;;;;14.55;63.74;100981.28;1786035;78;25914;-79
2022/09/23 12:16:35;;;;;;;1.20;0.82;;;;;;;14.47;63.39;100984.16;1777880;78;25924;-79
2022/09/23 12:19:33;;;;;;;1.00;0.60;;;;;;;14.41;63.37;100975.55;1793499;78;25956;-79
2022/09/23 12:22:46;;;;;;;0.90;0.75;;;;;;;14.42;63.60;100975.84;1788945;78;25920;-80
2022/09/23 12:25:45;;;;;;;0.80;0.70;;;;;;;14.56;63.96;100966.78;1806947;76;27516;-80